sensor_id;sensor_type;location;lat;lon;timestamp;P1;durP1;ratioP1;P2;durP2;ratioP2
13230;SDS011;6681;53.254;10.398;2023-04-21T00:00:32;12.57;;;9.40;;
13230;SDS011;6681;53.254;10.398;2023-04-21T00:02:58;12.13;;;8.50;;
13230;SDS011;6681;53.254;10.398;2023-04-21T00:05:23;18.63;;;10.20;;
13230;SDS011;6681;53.254;10.398;2023-04-21T00:07:49;17.37;;;9.87;;
13230;SDS011;6681;53.254;10.398;2023-04-21T00:10:15;17.60;;;10.40;;
13230;SDS011;6681;53.254;10.398;2023-04-21T00:12:40;17.33;;;8.93;;
13230;SDS011;6681;53.254;10.398;2023-04-21T00:15:06;15.30;;;10.00;;
13230;SDS011;6681;53.254;10.398;2023-04-21T00:17:32;15.43;;;10.03;;
13230;SDS011;6681;53.254;10.398;2023-04-21T00:19:58;18.47;;;10.27;;
13230;SDS011;6681;53.254;10.398;2023-04-21T00:22:23;15.33;;;10.77;;
13230;SDS011;6681;53.254;10.398;2023-04-21T00:24:49;13.27;;;10.10;;
13230;SDS011;6681;53.254;10.398;2023-04-21T00:27:14;17.27;;;9.10;;
13230;SDS011;6681;53.254;10.398;2023-04-21T00:29:40;15.67;;;9.63;;
13230;SDS011;6681;53.254;10.398;2023-04-21T00:32:06;17.07;;;10.47;;
13230;SDS011;6681;53.254;10.398;2023-04-21T00:34:34;15.20;;;8.80;;
13230;SDS011;6681;53.254;10.398;2023-04-21T00:37:00;20.93;;;11.33;;
13230;SDS011;6681;53.254;10.398;2023-04-21T00:39:25;17.07;;;10.27;;
13230;SDS011;6681;53.254;10.398;2023-04-21T00:41:51;15.77;;;10.33;;
13230;SDS011;6681;53.254;10.398;2023-04-21T00:44:16;13.17;;;10.03;;
13230;SDS011;6681;53.254;10.398;2023-04-21T00:46:42;18.23;;;9.90;;
13230;SDS011;6681;53.254;10.398;2023-04-21T00:49:08;13.37;;;10.27;;
13230;SDS011;6681;53.254;10.398;2023-04-21T00:51:34;22.63;;;9.40;;
13230;SDS011;6681;53.254;10.398;2023-04-21T00:54:02;18.57;;;11.53;;
13230;SDS011;6681;53.254;10.398;2023-04-21T00:56:30;11.90;;;9.20;;
13230;SDS011;6681;53.254;10.398;2023-04-21T00:58:56;18.90;;;12.00;;
13230;SDS011;6681;53.254;10.398;2023-04-21T01:01:23;16.10;;;10.37;;
13230;SDS011;6681;53.254;10.398;2023-04-21T01:03:49;23.00;;;12.23;;
13230;SDS011;6681;53.254;10.398;2023-04-21T01:06:16;18.43;;;10.03;;
13230;SDS011;6681;53.254;10.398;2023-04-21T01:08:44;19.27;;;11.20;;
13230;SDS011;6681;53.254;10.398;2023-04-21T01:11:11;12.90;;;9.70;;
13230;SDS011;6681;53.254;10.398;2023-04-21T01:13:37;15.40;;;10.63;;
13230;SDS011;6681;53.254;10.398;2023-04-21T01:16:03;15.57;;;9.97;;
13230;SDS011;6681;53.254;10.398;2023-04-21T01:18:29;11.37;;;9.60;;
13230;SDS011;6681;53.254;10.398;2023-04-21T01:20:58;15.60;;;9.27;;
13230;SDS011;6681;53.254;10.398;2023-04-21T01:23:23;16.43;;;9.83;;
13230;SDS011;6681;53.254;10.398;2023-04-21T01:25:49;15.47;;;10.37;;
13230;SDS011;6681;53.254;10.398;2023-04-21T01:28:22;18.67;;;11.00;;
13230;SDS011;6681;53.254;10.398;2023-04-21T01:30:49;20.60;;;10.30;;
13230;SDS011;6681;53.254;10.398;2023-04-21T01:33:15;17.97;;;9.50;;
13230;SDS011;6681;53.254;10.398;2023-04-21T01:35:41;15.17;;;9.80;;
13230;SDS011;6681;53.254;10.398;2023-04-21T01:38:07;15.57;;;10.63;;
13230;SDS011;6681;53.254;10.398;2023-04-21T01:40:32;16.53;;;10.80;;
13230;SDS011;6681;53.254;10.398;2023-04-21T01:42:58;17.87;;;10.47;;
13230;SDS011;6681;53.254;10.398;2023-04-21T01:45:24;20.07;;;10.60;;
13230;SDS011;6681;53.254;10.398;2023-04-21T01:47:49;15.27;;;10.23;;
13230;SDS011;6681;53.254;10.398;2023-04-21T01:50:15;18.60;;;9.27;;
13230;SDS011;6681;53.254;10.398;2023-04-21T01:52:41;20.53;;;10.90;;
13230;SDS011;6681;53.254;10.398;2023-04-21T01:55:07;19.10;;;10.90;;
13230;SDS011;6681;53.254;10.398;2023-04-21T01:57:32;12.57;;;10.13;;
13230;SDS011;6681;53.254;10.398;2023-04-21T01:59:58;13.50;;;9.90;;
13230;SDS011;6681;53.254;10.398;2023-04-21T02:02:24;16.83;;;10.33;;
13230;SDS011;6681;53.254;10.398;2023-04-21T02:04:49;17.27;;;10.13;;
13230;SDS011;6681;53.254;10.398;2023-04-21T02:07:15;16.43;;;10.40;;
13230;SDS011;6681;53.254;10.398;2023-04-21T02:09:41;15.67;;;11.23;;
13230;SDS011;6681;53.254;10.398;2023-04-21T02:12:07;14.80;;;10.53;;
13230;SDS011;6681;53.254;10.398;2023-04-21T02:14:32;16.10;;;10.27;;
13230;SDS011;6681;53.254;10.398;2023-04-21T02:16:58;18.03;;;10.47;;
13230;SDS011;6681;53.254;10.398;2023-04-21T02:19:23;17.27;;;11.33;;
13230;SDS011;6681;53.254;10.398;2023-04-21T02:21:49;15.43;;;10.23;;
13230;SDS011;6681;53.254;10.398;2023-04-21T02:24:15;16.13;;;10.57;;
13230;SDS011;6681;53.254;10.398;2023-04-21T02:26:40;15.10;;;9.60;;
13230;SDS011;6681;53.254;10.398;2023-04-21T02:29:06;19.67;;;11.73;;
13230;SDS011;6681;53.254;10.398;2023-04-21T02:31:31;16.87;;;9.27;;
13230;SDS011;6681;53.254;10.398;2023-04-21T02:33:57;13.00;;;9.03;;
13230;SDS011;6681;53.254;10.398;2023-04-21T02:36:23;18.90;;;10.60;;
13230;SDS011;6681;53.254;10.398;2023-04-21T02:38:49;12.90;;;8.97;;
13230;SDS011;6681;53.254;10.398;2023-04-21T02:41:15;18.80;;;11.47;;
13230;SDS011;6681;53.254;10.398;2023-04-21T02:43:40;19.50;;;12.00;;
13230;SDS011;6681;53.254;10.398;2023-04-21T02:46:06;14.03;;;8.40;;
13230;SDS011;6681;53.254;10.398;2023-04-21T02:48:32;15.73;;;9.67;;
13230;SDS011;6681;53.254;10.398;2023-04-21T02:50:58;12.17;;;9.03;;
13230;SDS011;6681;53.254;10.398;2023-04-21T02:53:24;10.77;;;8.77;;
13230;SDS011;6681;53.254;10.398;2023-04-21T02:55:50;21.30;;;9.87;;
13230;SDS011;6681;53.254;10.398;2023-04-21T02:58:15;14.67;;;9.27;;
13230;SDS011;6681;53.254;10.398;2023-04-21T03:00:41;14.17;;;8.13;;
13230;SDS011;6681;53.254;10.398;2023-04-21T03:03:07;11.50;;;10.30;;
13230;SDS011;6681;53.254;10.398;2023-04-21T03:05:32;15.37;;;9.70;;
13230;SDS011;6681;53.254;10.398;2023-04-21T03:07:58;23.20;;;11.20;;
13230;SDS011;6681;53.254;10.398;2023-04-21T03:10:23;14.10;;;10.20;;
13230;SDS011;6681;53.254;10.398;2023-04-21T03:12:49;18.07;;;9.47;;
13230;SDS011;6681;53.254;10.398;2023-04-21T03:15:15;18.37;;;10.20;;
13230;SDS011;6681;53.254;10.398;2023-04-21T03:17:41;22.00;;;10.77;;
13230;SDS011;6681;53.254;10.398;2023-04-21T03:20:07;14.23;;;9.67;;
13230;SDS011;6681;53.254;10.398;2023-04-21T03:22:35;18.23;;;9.93;;
13230;SDS011;6681;53.254;10.398;2023-04-21T03:25:04;17.20;;;10.70;;
13230;SDS011;6681;53.254;10.398;2023-04-21T03:27:31;13.73;;;9.77;;
13230;SDS011;6681;53.254;10.398;2023-04-21T03:29:57;17.23;;;10.10;;
13230;SDS011;6681;53.254;10.398;2023-04-21T03:32:23;15.50;;;9.80;;
13230;SDS011;6681;53.254;10.398;2023-04-21T03:34:49;13.87;;;9.30;;
13230;SDS011;6681;53.254;10.398;2023-04-21T03:37:14;19.57;;;11.43;;
13230;SDS011;6681;53.254;10.398;2023-04-21T03:39:40;15.77;;;10.33;;
13230;SDS011;6681;53.254;10.398;2023-04-21T03:42:05;16.80;;;11.50;;
13230;SDS011;6681;53.254;10.398;2023-04-21T03:44:31;13.50;;;9.47;;
13230;SDS011;6681;53.254;10.398;2023-04-21T03:46:57;12.63;;;9.80;;
13230;SDS011;6681;53.254;10.398;2023-04-21T03:49:23;16.03;;;10.30;;
13230;SDS011;6681;53.254;10.398;2023-04-21T03:51:48;19.53;;;10.87;;
13230;SDS011;6681;53.254;10.398;2023-04-21T03:54:14;16.07;;;10.07;;
13230;SDS011;6681;53.254;10.398;2023-04-21T03:56:40;19.00;;;11.20;;
13230;SDS011;6681;53.254;10.398;2023-04-21T03:59:05;21.37;;;10.27;;
13230;SDS011;6681;53.254;10.398;2023-04-21T04:01:32;14.03;;;11.10;;
13230;SDS011;6681;53.254;10.398;2023-04-21T04:03:58;15.30;;;10.80;;
13230;SDS011;6681;53.254;10.398;2023-04-21T04:06:24;17.50;;;10.40;;
13230;SDS011;6681;53.254;10.398;2023-04-21T04:08:50;15.67;;;9.93;;
13230;SDS011;6681;53.254;10.398;2023-04-21T04:11:16;15.50;;;9.97;;
13230;SDS011;6681;53.254;10.398;2023-04-21T04:13:41;17.17;;;10.53;;
13230;SDS011;6681;53.254;10.398;2023-04-21T04:16:07;22.37;;;10.97;;
13230;SDS011;6681;53.254;10.398;2023-04-21T04:18:32;14.97;;;11.87;;
13230;SDS011;6681;53.254;10.398;2023-04-21T04:21:03;15.27;;;10.27;;
13230;SDS011;6681;53.254;10.398;2023-04-21T04:23:32;21.73;;;12.07;;
13230;SDS011;6681;53.254;10.398;2023-04-21T04:25:58;17.87;;;12.97;;
13230;SDS011;6681;53.254;10.398;2023-04-21T04:28:25;12.93;;;10.70;;
13230;SDS011;6681;53.254;10.398;2023-04-21T04:30:51;18.60;;;12.93;;
13230;SDS011;6681;53.254;10.398;2023-04-21T04:33:17;17.13;;;11.00;;
13230;SDS011;6681;53.254;10.398;2023-04-21T04:35:42;16.30;;;12.00;;
13230;SDS011;6681;53.254;10.398;2023-04-21T04:38:08;20.57;;;13.30;;
13230;SDS011;6681;53.254;10.398;2023-04-21T04:40:34;21.90;;;11.60;;
13230;SDS011;6681;53.254;10.398;2023-04-21T04:42:59;20.00;;;11.80;;
13230;SDS011;6681;53.254;10.398;2023-04-21T04:45:26;18.13;;;11.80;;
13230;SDS011;6681;53.254;10.398;2023-04-21T04:47:53;26.67;;;13.17;;
13230;SDS011;6681;53.254;10.398;2023-04-21T04:50:19;19.07;;;12.87;;
13230;SDS011;6681;53.254;10.398;2023-04-21T04:52:45;21.93;;;12.00;;
13230;SDS011;6681;53.254;10.398;2023-04-21T04:55:11;16.37;;;12.13;;
13230;SDS011;6681;53.254;10.398;2023-04-21T04:57:38;16.27;;;11.40;;
13230;SDS011;6681;53.254;10.398;2023-04-21T05:00:05;21.53;;;12.37;;
13230;SDS011;6681;53.254;10.398;2023-04-21T05:02:35;19.60;;;12.57;;
13230;SDS011;6681;53.254;10.398;2023-04-21T05:05:01;13.93;;;11.63;;
13230;SDS011;6681;53.254;10.398;2023-04-21T05:07:27;21.60;;;12.23;;
13230;SDS011;6681;53.254;10.398;2023-04-21T05:09:53;15.83;;;11.47;;
13230;SDS011;6681;53.254;10.398;2023-04-21T05:12:18;19.63;;;11.70;;
13230;SDS011;6681;53.254;10.398;2023-04-21T05:14:44;16.70;;;11.50;;
13230;SDS011;6681;53.254;10.398;2023-04-21T05:17:09;15.23;;;11.63;;
13230;SDS011;6681;53.254;10.398;2023-04-21T05:19:38;15.27;;;10.43;;
13230;SDS011;6681;53.254;10.398;2023-04-21T05:22:04;21.40;;;11.43;;
13230;SDS011;6681;53.254;10.398;2023-04-21T05:24:31;16.77;;;10.70;;
13230;SDS011;6681;53.254;10.398;2023-04-21T05:27:00;17.47;;;11.93;;
13230;SDS011;6681;53.254;10.398;2023-04-21T05:29:29;17.87;;;10.97;;
13230;SDS011;6681;53.254;10.398;2023-04-21T05:31:55;18.40;;;11.90;;
13230;SDS011;6681;53.254;10.398;2023-04-21T05:34:22;15.27;;;11.30;;
13230;SDS011;6681;53.254;10.398;2023-04-21T05:36:47;16.03;;;11.93;;
13230;SDS011;6681;53.254;10.398;2023-04-21T05:39:13;17.10;;;11.87;;
13230;SDS011;6681;53.254;10.398;2023-04-21T05:41:40;15.97;;;11.07;;
13230;SDS011;6681;53.254;10.398;2023-04-21T05:44:06;20.07;;;12.17;;
13230;SDS011;6681;53.254;10.398;2023-04-21T05:46:32;13.23;;;10.90;;
13230;SDS011;6681;53.254;10.398;2023-04-21T05:48:58;16.97;;;10.83;;
13230;SDS011;6681;53.254;10.398;2023-04-21T05:51:26;23.57;;;11.93;;
13230;SDS011;6681;53.254;10.398;2023-04-21T05:53:52;18.50;;;11.17;;
13230;SDS011;6681;53.254;10.398;2023-04-21T05:56:17;14.67;;;11.83;;
13230;SDS011;6681;53.254;10.398;2023-04-21T05:58:43;19.87;;;12.13;;
13230;SDS011;6681;53.254;10.398;2023-04-21T06:01:08;19.23;;;11.13;;
13230;SDS011;6681;53.254;10.398;2023-04-21T06:03:35;18.77;;;12.47;;
13230;SDS011;6681;53.254;10.398;2023-04-21T06:06:01;18.70;;;11.97;;
13230;SDS011;6681;53.254;10.398;2023-04-21T06:08:28;18.57;;;11.33;;
13230;SDS011;6681;53.254;10.398;2023-04-21T06:10:54;16.50;;;11.40;;
13230;SDS011;6681;53.254;10.398;2023-04-21T06:13:19;20.73;;;14.70;;
13230;SDS011;6681;53.254;10.398;2023-04-21T06:15:45;30.37;;;19.97;;
13230;SDS011;6681;53.254;10.398;2023-04-21T06:18:11;19.53;;;12.83;;
13230;SDS011;6681;53.254;10.398;2023-04-21T06:20:36;16.43;;;11.87;;
13230;SDS011;6681;53.254;10.398;2023-04-21T06:23:02;17.83;;;10.70;;
13230;SDS011;6681;53.254;10.398;2023-04-21T06:25:27;15.83;;;11.00;;
13230;SDS011;6681;53.254;10.398;2023-04-21T06:27:54;20.23;;;11.27;;
13230;SDS011;6681;53.254;10.398;2023-04-21T06:30:20;14.77;;;9.53;;
13230;SDS011;6681;53.254;10.398;2023-04-21T06:32:46;16.70;;;10.00;;
13230;SDS011;6681;53.254;10.398;2023-04-21T06:35:12;13.00;;;9.77;;
13230;SDS011;6681;53.254;10.398;2023-04-21T06:37:39;18.83;;;11.20;;
13230;SDS011;6681;53.254;10.398;2023-04-21T06:40:05;15.40;;;11.13;;
13230;SDS011;6681;53.254;10.398;2023-04-21T06:42:32;13.73;;;9.50;;
13230;SDS011;6681;53.254;10.398;2023-04-21T06:44:57;14.73;;;11.27;;
13230;SDS011;6681;53.254;10.398;2023-04-21T06:47:23;12.43;;;10.37;;
13230;SDS011;6681;53.254;10.398;2023-04-21T06:49:48;16.07;;;10.03;;
13230;SDS011;6681;53.254;10.398;2023-04-21T06:52:14;12.97;;;10.27;;
13230;SDS011;6681;53.254;10.398;2023-04-21T06:54:40;15.20;;;10.40;;
13230;SDS011;6681;53.254;10.398;2023-04-21T06:57:05;14.43;;;9.03;;
13230;SDS011;6681;53.254;10.398;2023-04-21T06:59:31;15.73;;;11.03;;
13230;SDS011;6681;53.254;10.398;2023-04-21T07:01:58;19.67;;;11.80;;
13230;SDS011;6681;53.254;10.398;2023-04-21T07:04:24;20.20;;;10.40;;
13230;SDS011;6681;53.254;10.398;2023-04-21T07:06:54;13.07;;;9.80;;
13230;SDS011;6681;53.254;10.398;2023-04-21T07:09:20;11.40;;;9.03;;
13230;SDS011;6681;53.254;10.398;2023-04-21T07:11:45;14.13;;;10.03;;
13230;SDS011;6681;53.254;10.398;2023-04-21T07:14:11;16.97;;;9.63;;
13230;SDS011;6681;53.254;10.398;2023-04-21T07:16:37;12.60;;;9.03;;
13230;SDS011;6681;53.254;10.398;2023-04-21T07:19:02;11.97;;;9.60;;
13230;SDS011;6681;53.254;10.398;2023-04-21T07:21:28;15.40;;;10.33;;
13230;SDS011;6681;53.254;10.398;2023-04-21T07:23:56;11.47;;;8.83;;
13230;SDS011;6681;53.254;10.398;2023-04-21T07:26:22;13.27;;;8.93;;
13230;SDS011;6681;53.254;10.398;2023-04-21T07:28:48;13.70;;;8.60;;
13230;SDS011;6681;53.254;10.398;2023-04-21T07:31:16;11.97;;;9.47;;
13230;SDS011;6681;53.254;10.398;2023-04-21T07:33:41;16.30;;;9.60;;
13230;SDS011;6681;53.254;10.398;2023-04-21T07:36:07;13.60;;;9.40;;
13230;SDS011;6681;53.254;10.398;2023-04-21T07:38:33;14.53;;;10.00;;
13230;SDS011;6681;53.254;10.398;2023-04-21T07:40:59;11.97;;;9.77;;
13230;SDS011;6681;53.254;10.398;2023-04-21T07:43:25;17.43;;;10.40;;
13230;SDS011;6681;53.254;10.398;2023-04-21T07:45:51;11.00;;;8.20;;
13230;SDS011;6681;53.254;10.398;2023-04-21T07:48:17;12.23;;;8.73;;
13230;SDS011;6681;53.254;10.398;2023-04-21T07:50:43;17.33;;;12.93;;
13230;SDS011;6681;53.254;10.398;2023-04-21T07:53:08;16.80;;;13.50;;
13230;SDS011;6681;53.254;10.398;2023-04-21T07:55:34;16.80;;;10.77;;
13230;SDS011;6681;53.254;10.398;2023-04-21T07:58:01;17.83;;;10.07;;
13230;SDS011;6681;53.254;10.398;2023-04-21T08:00:30;10.93;;;9.63;;
13230;SDS011;6681;53.254;10.398;2023-04-21T08:02:56;12.83;;;8.93;;
13230;SDS011;6681;53.254;10.398;2023-04-21T08:05:21;12.23;;;10.00;;
13230;SDS011;6681;53.254;10.398;2023-04-21T08:07:47;12.53;;;9.30;;
13230;SDS011;6681;53.254;10.398;2023-04-21T08:10:13;15.27;;;9.23;;
13230;SDS011;6681;53.254;10.398;2023-04-21T08:12:38;11.43;;;8.60;;
13230;SDS011;6681;53.254;10.398;2023-04-21T08:15:04;11.13;;;8.20;;
13230;SDS011;6681;53.254;10.398;2023-04-21T08:17:32;11.83;;;8.83;;
13230;SDS011;6681;53.254;10.398;2023-04-21T08:19:58;14.50;;;10.00;;
13230;SDS011;6681;53.254;10.398;2023-04-21T08:22:24;10.87;;;9.23;;
13230;SDS011;6681;53.254;10.398;2023-04-21T08:24:50;10.17;;;8.80;;
13230;SDS011;6681;53.254;10.398;2023-04-21T08:27:16;12.57;;;9.40;;
13230;SDS011;6681;53.254;10.398;2023-04-21T08:29:41;12.90;;;9.00;;
13230;SDS011;6681;53.254;10.398;2023-04-21T08:32:07;11.57;;;9.33;;
13230;SDS011;6681;53.254;10.398;2023-04-21T08:34:33;16.33;;;8.97;;
13230;SDS011;6681;53.254;10.398;2023-04-21T08:36:58;13.77;;;10.23;;
13230;SDS011;6681;53.254;10.398;2023-04-21T08:39:24;9.60;;;8.60;;
13230;SDS011;6681;53.254;10.398;2023-04-21T08:41:50;10.77;;;8.90;;
13230;SDS011;6681;53.254;10.398;2023-04-21T08:44:17;11.57;;;8.60;;
13230;SDS011;6681;53.254;10.398;2023-04-21T08:46:44;11.60;;;8.60;;
13230;SDS011;6681;53.254;10.398;2023-04-21T08:49:12;10.13;;;9.00;;
13230;SDS011;6681;53.254;10.398;2023-04-21T08:51:45;11.00;;;8.97;;
13230;SDS011;6681;53.254;10.398;2023-04-21T08:54:11;16.20;;;10.07;;
13230;SDS011;6681;53.254;10.398;2023-04-21T08:56:37;13.87;;;9.03;;
13230;SDS011;6681;53.254;10.398;2023-04-21T08:59:03;10.23;;;7.73;;
13230;SDS011;6681;53.254;10.398;2023-04-21T09:01:29;9.47;;;8.43;;
13230;SDS011;6681;53.254;10.398;2023-04-21T09:04:07;10.77;;;9.33;;
13230;SDS011;6681;53.254;10.398;2023-04-21T09:06:40;12.57;;;9.33;;
13230;SDS011;6681;53.254;10.398;2023-04-21T09:09:10;10.87;;;9.60;;
13230;SDS011;6681;53.254;10.398;2023-04-21T09:11:35;10.87;;;8.83;;
13230;SDS011;6681;53.254;10.398;2023-04-21T09:14:01;13.30;;;9.23;;
13230;SDS011;6681;53.254;10.398;2023-04-21T09:16:29;9.17;;;6.90;;
13230;SDS011;6681;53.254;10.398;2023-04-21T09:18:57;10.40;;;9.30;;
13230;SDS011;6681;53.254;10.398;2023-04-21T09:21:28;9.53;;;8.00;;
13230;SDS011;6681;53.254;10.398;2023-04-21T09:23:54;9.50;;;8.40;;
13230;SDS011;6681;53.254;10.398;2023-04-21T09:26:20;13.53;;;9.60;;
13230;SDS011;6681;53.254;10.398;2023-04-21T09:28:49;10.63;;;8.03;;
13230;SDS011;6681;53.254;10.398;2023-04-21T09:31:16;11.03;;;8.87;;
13230;SDS011;6681;53.254;10.398;2023-04-21T09:33:49;9.20;;;8.07;;
13230;SDS011;6681;53.254;10.398;2023-04-21T09:36:20;13.17;;;8.87;;
13230;SDS011;6681;53.254;10.398;2023-04-21T09:41:19;15.33;;;8.87;;
13230;SDS011;6681;53.254;10.398;2023-04-21T09:43:45;9.07;;;7.77;;
13230;SDS011;6681;53.254;10.398;2023-04-21T09:46:12;10.27;;;7.57;;
13230;SDS011;6681;53.254;10.398;2023-04-21T09:48:44;9.53;;;8.50;;
13230;SDS011;6681;53.254;10.398;2023-04-21T09:51:11;8.83;;;7.90;;
13230;SDS011;6681;53.254;10.398;2023-04-21T09:53:38;9.00;;;7.93;;
13230;SDS011;6681;53.254;10.398;2023-04-21T09:56:15;14.87;;;8.57;;
13230;SDS011;6681;53.254;10.398;2023-04-21T09:58:51;8.27;;;6.77;;
13230;SDS011;6681;53.254;10.398;2023-04-21T10:01:19;9.03;;;8.10;;
13230;SDS011;6681;53.254;10.398;2023-04-21T10:03:46;11.43;;;8.00;;
13230;SDS011;6681;53.254;10.398;2023-04-21T10:06:13;11.03;;;7.73;;
13230;SDS011;6681;53.254;10.398;2023-04-21T10:08:39;11.77;;;8.23;;
13230;SDS011;6681;53.254;10.398;2023-04-21T10:11:05;10.67;;;8.70;;
13230;SDS011;6681;53.254;10.398;2023-04-21T10:13:32;8.63;;;7.77;;
13230;SDS011;6681;53.254;10.398;2023-04-21T10:16:00;9.03;;;7.63;;
13230;SDS011;6681;53.254;10.398;2023-04-21T10:18:32;12.87;;;7.93;;
13230;SDS011;6681;53.254;10.398;2023-04-21T10:21:01;10.00;;;7.63;;
13230;SDS011;6681;53.254;10.398;2023-04-21T10:23:29;11.17;;;8.03;;
13230;SDS011;6681;53.254;10.398;2023-04-21T10:26:08;10.83;;;7.50;;
13230;SDS011;6681;53.254;10.398;2023-04-21T10:34:12;12.30;;;7.87;;
13230;SDS011;6681;53.254;10.398;2023-04-21T10:39:06;6.50;;;5.90;;
13230;SDS011;6681;53.254;10.398;2023-04-21T10:41:32;12.93;;;7.27;;
13230;SDS011;6681;53.254;10.398;2023-04-21T10:46:46;7.80;;;6.87;;
13230;SDS011;6681;53.254;10.398;2023-04-21T10:49:20;9.97;;;6.63;;
13230;SDS011;6681;53.254;10.398;2023-04-21T10:54:34;8.97;;;6.77;;
13230;SDS011;6681;53.254;10.398;2023-04-21T10:57:10;8.73;;;5.77;;
13230;SDS011;6681;53.254;10.398;2023-04-21T10:59:38;6.67;;;5.67;;
13230;SDS011;6681;53.254;10.398;2023-04-21T11:02:04;9.50;;;6.10;;
13230;SDS011;6681;53.254;10.398;2023-04-21T11:04:31;10.83;;;5.50;;
13230;SDS011;6681;53.254;10.398;2023-04-21T11:09:39;7.83;;;5.80;;
13230;SDS011;6681;53.254;10.398;2023-04-21T11:12:10;7.27;;;6.57;;
13230;SDS011;6681;53.254;10.398;2023-04-21T11:14:37;8.13;;;6.27;;
13230;SDS011;6681;53.254;10.398;2023-04-21T11:17:04;8.20;;;6.83;;
13230;SDS011;6681;53.254;10.398;2023-04-21T11:19:39;6.33;;;5.70;;
13230;SDS011;6681;53.254;10.398;2023-04-21T11:22:05;10.30;;;5.23;;
13230;SDS011;6681;53.254;10.398;2023-04-21T11:24:31;9.20;;;5.97;;
13230;SDS011;6681;53.254;10.398;2023-04-21T11:26:57;6.77;;;5.63;;
13230;SDS011;6681;53.254;10.398;2023-04-21T11:29:25;7.13;;;5.60;;
13230;SDS011;6681;53.254;10.398;2023-04-21T11:31:53;8.40;;;5.70;;
13230;SDS011;6681;53.254;10.398;2023-04-21T11:34:19;7.60;;;4.97;;
13230;SDS011;6681;53.254;10.398;2023-04-21T11:36:45;9.40;;;5.57;;
13230;SDS011;6681;53.254;10.398;2023-04-21T11:39:13;6.37;;;5.57;;
13230;SDS011;6681;53.254;10.398;2023-04-21T11:41:41;8.67;;;5.93;;
13230;SDS011;6681;53.254;10.398;2023-04-21T11:44:11;8.37;;;5.50;;
13230;SDS011;6681;53.254;10.398;2023-04-21T11:46:44;7.33;;;5.13;;
13230;SDS011;6681;53.254;10.398;2023-04-21T11:49:10;6.30;;;5.27;;
13230;SDS011;6681;53.254;10.398;2023-04-21T11:51:38;5.20;;;4.10;;
13230;SDS011;6681;53.254;10.398;2023-04-21T11:54:09;8.80;;;4.93;;
13230;SDS011;6681;53.254;10.398;2023-04-21T11:56:40;8.83;;;4.80;;
13230;SDS011;6681;53.254;10.398;2023-04-21T11:59:08;8.13;;;4.80;;
13230;SDS011;6681;53.254;10.398;2023-04-21T12:01:42;5.67;;;4.07;;
13230;SDS011;6681;53.254;10.398;2023-04-21T12:06:41;5.70;;;5.07;;
13230;SDS011;6681;53.254;10.398;2023-04-21T12:09:09;11.07;;;5.60;;
13230;SDS011;6681;53.254;10.398;2023-04-21T12:11:51;17.90;;;6.23;;
13230;SDS011;6681;53.254;10.398;2023-04-21T12:14:19;5.33;;;3.93;;
13230;SDS011;6681;53.254;10.398;2023-04-21T12:16:49;6.80;;;4.73;;
13230;SDS011;6681;53.254;10.398;2023-04-21T12:19:36;7.20;;;5.23;;
13230;SDS011;6681;53.254;10.398;2023-04-21T12:22:13;6.43;;;5.83;;
13230;SDS011;6681;53.254;10.398;2023-04-21T12:24:42;6.53;;;5.93;;
13230;SDS011;6681;53.254;10.398;2023-04-21T12:27:09;5.33;;;4.67;;
13230;SDS011;6681;53.254;10.398;2023-04-21T12:29:35;5.33;;;4.80;;
13230;SDS011;6681;53.254;10.398;2023-04-21T12:32:05;7.10;;;4.97;;
13230;SDS011;6681;53.254;10.398;2023-04-21T12:34:34;6.33;;;4.47;;
13230;SDS011;6681;53.254;10.398;2023-04-21T12:37:00;9.80;;;4.83;;
13230;SDS011;6681;53.254;10.398;2023-04-21T12:39:26;6.40;;;4.93;;
13230;SDS011;6681;53.254;10.398;2023-04-21T12:41:51;9.33;;;5.63;;
13230;SDS011;6681;53.254;10.398;2023-04-21T12:44:17;4.90;;;4.50;;
13230;SDS011;6681;53.254;10.398;2023-04-21T12:46:43;7.13;;;4.63;;
13230;SDS011;6681;53.254;10.398;2023-04-21T12:49:08;9.07;;;5.43;;
13230;SDS011;6681;53.254;10.398;2023-04-21T12:51:35;7.80;;;4.37;;
13230;SDS011;6681;53.254;10.398;2023-04-21T12:54:00;6.13;;;4.77;;
13230;SDS011;6681;53.254;10.398;2023-04-21T12:56:26;8.30;;;5.30;;
13230;SDS011;6681;53.254;10.398;2023-04-21T12:58:52;4.97;;;4.57;;
13230;SDS011;6681;53.254;10.398;2023-04-21T13:01:19;5.97;;;4.77;;
13230;SDS011;6681;53.254;10.398;2023-04-21T13:03:45;7.77;;;5.17;;
13230;SDS011;6681;53.254;10.398;2023-04-21T13:06:11;9.67;;;5.60;;
13230;SDS011;6681;53.254;10.398;2023-04-21T13:08:37;5.90;;;5.30;;
13230;SDS011;6681;53.254;10.398;2023-04-21T13:11:02;7.90;;;5.50;;
13230;SDS011;6681;53.254;10.398;2023-04-21T13:13:29;9.77;;;4.93;;
13230;SDS011;6681;53.254;10.398;2023-04-21T13:15:55;6.83;;;4.90;;
13230;SDS011;6681;53.254;10.398;2023-04-21T13:18:20;6.47;;;5.17;;
13230;SDS011;6681;53.254;10.398;2023-04-21T13:20:46;8.60;;;6.03;;
13230;SDS011;6681;53.254;10.398;2023-04-21T13:23:12;5.53;;;4.40;;
13230;SDS011;6681;53.254;10.398;2023-04-21T13:25:38;9.97;;;5.57;;
13230;SDS011;6681;53.254;10.398;2023-04-21T13:28:04;5.70;;;5.30;;
13230;SDS011;6681;53.254;10.398;2023-04-21T13:30:31;19.37;;;5.07;;
13230;SDS011;6681;53.254;10.398;2023-04-21T13:32:57;7.73;;;5.33;;
13230;SDS011;6681;53.254;10.398;2023-04-21T13:35:23;8.20;;;5.90;;
13230;SDS011;6681;53.254;10.398;2023-04-21T13:37:49;5.97;;;4.80;;
13230;SDS011;6681;53.254;10.398;2023-04-21T13:40:15;15.63;;;5.37;;
13230;SDS011;6681;53.254;10.398;2023-04-21T13:42:40;10.27;;;4.13;;
13230;SDS011;6681;53.254;10.398;2023-04-21T13:45:06;7.23;;;4.77;;
13230;SDS011;6681;53.254;10.398;2023-04-21T13:47:32;7.70;;;4.83;;
13230;SDS011;6681;53.254;10.398;2023-04-21T13:49:58;5.63;;;4.97;;
13230;SDS011;6681;53.254;10.398;2023-04-21T13:52:25;11.30;;;6.00;;
13230;SDS011;6681;53.254;10.398;2023-04-21T13:54:51;8.03;;;4.43;;
13230;SDS011;6681;53.254;10.398;2023-04-21T13:57:18;5.43;;;4.40;;
13230;SDS011;6681;53.254;10.398;2023-04-21T13:59:45;13.80;;;5.37;;
13230;SDS011;6681;53.254;10.398;2023-04-21T14:02:11;7.07;;;6.37;;
13230;SDS011;6681;53.254;10.398;2023-04-21T14:04:36;6.33;;;5.20;;
13230;SDS011;6681;53.254;10.398;2023-04-21T14:07:02;7.20;;;5.97;;
13230;SDS011;6681;53.254;10.398;2023-04-21T14:09:29;6.83;;;5.30;;
13230;SDS011;6681;53.254;10.398;2023-04-21T14:11:55;6.67;;;4.67;;
13230;SDS011;6681;53.254;10.398;2023-04-21T14:14:21;7.23;;;4.50;;
13230;SDS011;6681;53.254;10.398;2023-04-21T14:16:46;3.60;;;3.30;;
13230;SDS011;6681;53.254;10.398;2023-04-21T14:19:13;4.57;;;3.93;;
13230;SDS011;6681;53.254;10.398;2023-04-21T14:21:39;6.83;;;5.00;;
13230;SDS011;6681;53.254;10.398;2023-04-21T14:24:05;9.30;;;4.67;;
13230;SDS011;6681;53.254;10.398;2023-04-21T14:26:31;8.47;;;4.80;;
13230;SDS011;6681;53.254;10.398;2023-04-21T14:28:57;5.73;;;3.77;;
13230;SDS011;6681;53.254;10.398;2023-04-21T14:31:24;4.60;;;4.20;;
13230;SDS011;6681;53.254;10.398;2023-04-21T14:33:50;9.80;;;4.17;;
13230;SDS011;6681;53.254;10.398;2023-04-21T14:36:15;5.97;;;4.50;;
13230;SDS011;6681;53.254;10.398;2023-04-21T14:38:41;4.70;;;4.30;;
13230;SDS011;6681;53.254;10.398;2023-04-21T14:41:07;5.17;;;4.50;;
13230;SDS011;6681;53.254;10.398;2023-04-21T14:43:33;5.77;;;4.77;;
13230;SDS011;6681;53.254;10.398;2023-04-21T14:45:59;5.90;;;4.50;;
13230;SDS011;6681;53.254;10.398;2023-04-21T14:48:24;5.90;;;5.30;;
13230;SDS011;6681;53.254;10.398;2023-04-21T14:50:50;4.60;;;4.13;;